sensor_id;sensor_type;location;lat;lon;timestamp;pressure;altitude;pressure_sealevel;temperature;humidity
12951;BME280;6540;50.858;7.232;2023-02-18T00:01:18;51844.47;;;-142.34;33.90
12951;BME280;6540;50.858;7.232;2023-02-18T00:03:45;51882.78;;;-142.34;32.74
12951;BME280;6540;50.858;7.232;2023-02-18T00:08:37;51874.72;;;-142.34;32.91
12951;BME280;6540;50.858;7.232;2023-02-18T00:11:04;51787.97;;;-142.34;32.46
12951;BME280;6540;50.858;7.232;2023-02-18T00:13:30;51854.53;;;-142.34;33.53
12951;BME280;6540;50.858;7.232;2023-02-18T00:16:00;51882.78;;;-142.34;33.58
12951;BME280;6540;50.858;7.232;2023-02-18T00:18:25;51846.47;;;-142.34;33.27
12951;BME280;6540;50.858;7.232;2023-02-18T00:20:51;51878.75;;;-142.34;33.51
12951;BME280;6540;50.858;7.232;2023-02-18T00:23:16;51890.84;;;-142.34;33.38
12951;BME280;6540;50.858;7.232;2023-02-18T00:25:41;51852.53;;;-142.34;32.52
12951;BME280;6540;50.858;7.232;2023-02-18T00:28:07;51862.63;;;-142.34;33.04
12951;BME280;6540;50.858;7.232;2023-02-18T00:30:32;51874.72;;;-142.34;32.84
12951;BME280;6540;50.858;7.232;2023-02-18T00:32:57;51874.72;;;-142.34;33.59
12951;BME280;6540;50.858;7.232;2023-02-18T00:35:23;51894.88;;;-142.34;33.81
12951;BME280;6540;50.858;7.232;2023-02-18T00:37:51;51838.41;;;-142.34;34.01
12951;BME280;6540;50.858;7.232;2023-02-18T00:40:18;51848.50;;;-142.34;31.90
12951;BME280;6540;50.858;7.232;2023-02-18T00:42:43;51892.88;;;-142.34;33.24
12951;BME280;6540;50.858;7.232;2023-02-18T00:45:08;51886.81;;;-142.34;33.83
12951;BME280;6540;50.858;7.232;2023-02-18T00:47:34;51854.53;;;-142.34;32.59
12951;BME280;6540;50.858;7.232;2023-02-18T00:49:59;51870.69;;;-142.34;33.49
12951;BME280;6540;50.858;7.232;2023-02-18T00:52:24;51904.97;;;-142.34;33.34
12951;BME280;6540;50.858;7.232;2023-02-18T00:54:50;51874.72;;;-142.34;32.26
12951;BME280;6540;50.858;7.232;2023-02-18T00:57:15;51874.72;;;-142.34;33.34
12951;BME280;6540;50.858;7.232;2023-02-18T00:59:40;51890.84;;;-142.34;34.43
12951;BME280;6540;50.858;7.232;2023-02-18T01:02:06;51862.63;;;-142.34;32.43
12951;BME280;6540;50.858;7.232;2023-02-18T01:04:34;51880.78;;;-142.34;33.45
12951;BME280;6540;50.858;7.232;2023-02-18T01:07:00;51923.13;;;-142.34;33.35
12951;BME280;6540;50.858;7.232;2023-02-18T01:09:25;51890.84;;;-142.34;33.27
12951;BME280;6540;50.858;7.232;2023-02-18T01:11:50;51856.56;;;-142.34;33.56
12951;BME280;6540;50.858;7.232;2023-02-18T01:14:16;51876.72;;;-142.34;33.21
12951;BME280;6540;50.858;7.232;2023-02-18T01:16:41;51880.78;;;-142.34;33.39
12951;BME280;6540;50.858;7.232;2023-02-18T01:19:06;51874.72;;;-142.34;31.38
12951;BME280;6540;50.858;7.232;2023-02-18T01:21:32;51848.50;;;-142.34;32.68
12951;BME280;6540;50.858;7.232;2023-02-18T01:23:57;51878.75;;;-142.34;33.03
12951;BME280;6540;50.858;7.232;2023-02-18T01:26:23;51866.66;;;-142.34;33.80
12951;BME280;6540;50.858;7.232;2023-02-18T01:28:49;51862.63;;;-142.34;33.85
12951;BME280;6540;50.858;7.232;2023-02-18T01:31:14;51874.72;;;-142.34;33.05
12951;BME280;6540;50.858;7.232;2023-02-18T01:33:41;51886.81;;;-142.34;33.90
12951;BME280;6540;50.858;7.232;2023-02-18T01:36:07;51880.78;;;-142.34;33.75
12951;BME280;6540;50.858;7.232;2023-02-18T01:38:33;51876.72;;;-142.34;33.72
12951;BME280;6540;50.858;7.232;2023-02-18T01:40:58;51866.66;;;-142.34;33.35
12951;BME280;6540;50.858;7.232;2023-02-18T01:43:24;51880.78;;;-142.34;33.61
12951;BME280;6540;50.858;7.232;2023-02-18T01:48:29;51876.72;;;-142.34;31.52
12951;BME280;6540;50.858;7.232;2023-02-18T01:51:17;51892.88;;;-142.34;32.76
12951;BME280;6540;50.858;7.232;2023-02-18T01:53:55;51880.78;;;-142.34;33.87
12951;BME280;6540;50.858;7.232;2023-02-18T01:57:06;51848.50;;;-142.34;33.17
12951;BME280;6540;50.858;7.232;2023-02-18T01:59:15;51902.97;;;-142.34;33.35
12951;BME280;6540;50.858;7.232;2023-02-18T02:01:43;51890.84;;;-142.34;33.44
12951;BME280;6540;50.858;7.232;2023-02-18T02:04:10;51878.75;;;-142.34;32.50
12951;BME280;6540;50.858;7.232;2023-02-18T02:06:35;51870.69;;;-142.34;32.69
12951;BME280;6540;50.858;7.232;2023-02-18T02:09:04;51852.53;;;-142.34;33.37
12951;BME280;6540;50.858;7.232;2023-02-18T02:25:37;51862.63;;;-142.34;33.68
12951;BME280;6540;50.858;7.232;2023-02-18T02:34:03;51868.66;;;-142.34;32.28
12951;BME280;6540;50.858;7.232;2023-02-18T02:44:51;51862.63;;;-142.34;31.49
12951;BME280;6540;50.858;7.232;2023-02-18T02:52:47;51850.50;;;-142.34;32.32
12951;BME280;6540;50.858;7.232;2023-02-18T02:55:14;51894.88;;;-142.34;32.65
12951;BME280;6540;50.858;7.232;2023-02-18T02:57:43;51842.44;;;-142.34;31.33
12951;BME280;6540;50.858;7.232;2023-02-18T03:00:10;51822.25;;;-142.34;30.79
12951;BME280;6540;50.858;7.232;2023-02-18T03:10:52;51884.81;;;-142.34;32.79
12951;BME280;6540;50.858;7.232;2023-02-18T03:19:14;51822.25;;;-142.34;31.11
12951;BME280;6540;50.858;7.232;2023-02-18T03:22:17;51838.41;;;-142.34;30.95
12951;BME280;6540;50.858;7.232;2023-02-18T03:24:47;51828.31;;;-142.34;31.80
12951;BME280;6540;50.858;7.232;2023-02-18T03:27:20;51840.41;;;-142.34;30.65
12951;BME280;6540;50.858;7.232;2023-02-18T03:29:52;51814.19;;;-142.34;31.31
12951;BME280;6540;50.858;7.232;2023-02-18T03:32:21;51822.25;;;-142.34;31.23
12951;BME280;6540;50.858;7.232;2023-02-18T03:34:52;51854.53;;;-142.34;31.23
12951;BME280;6540;50.858;7.232;2023-02-18T03:37:20;51822.25;;;-142.34;32.91
12951;BME280;6540;50.858;7.232;2023-02-18T03:39:48;51818.22;;;-142.34;30.63
12951;BME280;6540;50.858;7.232;2023-02-18T03:42:16;51838.41;;;-142.34;31.89
12951;BME280;6540;50.858;7.232;2023-02-18T03:44:45;51844.47;;;-142.34;31.28
12951;BME280;6540;50.858;7.232;2023-02-18T03:47:11;51804.13;;;-142.34;31.48
12951;BME280;6540;50.858;7.232;2023-02-18T03:49:37;51864.63;;;-142.34;32.40
12951;BME280;6540;50.858;7.232;2023-02-18T03:52:02;51826.31;;;-142.34;30.47
12951;BME280;6540;50.858;7.232;2023-02-18T03:54:27;51806.13;;;-142.34;29.70
12951;BME280;6540;50.858;7.232;2023-02-18T03:56:53;51794.03;;;-142.34;29.68
12951;BME280;6540;50.858;7.232;2023-02-18T03:59:18;51798.06;;;-142.34;30.35
12951;BME280;6540;50.858;7.232;2023-02-18T04:01:44;51802.09;;;-142.34;30.11
12951;BME280;6540;50.858;7.232;2023-02-18T04:04:09;51783.94;;;-142.34;29.95
12951;BME280;6540;50.858;7.232;2023-02-18T04:06:34;51785.94;;;-142.34;29.40
12951;BME280;6540;50.858;7.232;2023-02-18T04:09:00;51787.97;;;-142.34;29.31
12951;BME280;6540;50.858;7.232;2023-02-18T04:11:26;51785.94;;;-142.34;29.74
12951;BME280;6540;50.858;7.232;2023-02-18T04:13:52;51806.13;;;-142.34;29.86
12951;BME280;6540;50.858;7.232;2023-02-18T04:16:17;51806.13;;;-142.34;29.57
12951;BME280;6540;50.858;7.232;2023-02-18T04:18:43;51808.16;;;-142.34;29.71
12951;BME280;6540;50.858;7.232;2023-02-18T04:21:08;51810.16;;;-142.34;29.63
12951;BME280;6540;50.858;7.232;2023-02-18T04:23:33;51826.31;;;-142.34;30.60
12951;BME280;6540;50.858;7.232;2023-02-18T04:25:59;51802.09;;;-142.34;31.45
12951;BME280;6540;50.858;7.232;2023-02-18T04:28:24;51838.41;;;-142.34;30.69
12951;BME280;6540;50.858;7.232;2023-02-18T04:30:49;51818.22;;;-142.34;30.42
12951;BME280;6540;50.858;7.232;2023-02-18T04:33:15;51765.78;;;-142.34;30.55
12951;BME280;6540;50.858;7.232;2023-02-18T04:35:40;51787.97;;;-142.34;30.49
12951;BME280;6540;50.858;7.232;2023-02-18T04:38:07;51816.22;;;-142.34;31.88
12951;BME280;6540;50.858;7.232;2023-02-18T04:40:32;51777.88;;;-142.34;30.43
12951;BME280;6540;50.858;7.232;2023-02-18T04:42:59;51785.94;;;-142.34;30.33
12951;BME280;6540;50.858;7.232;2023-02-18T04:45:25;51802.09;;;-142.34;33.05
12951;BME280;6540;50.858;7.232;2023-02-18T04:47:50;51826.31;;;-142.34;31.86
12951;BME280;6540;50.858;7.232;2023-02-18T04:50:16;51838.41;;;-142.34;32.49
12951;BME280;6540;50.858;7.232;2023-02-18T04:52:41;51814.19;;;-142.34;32.43
12951;BME280;6540;50.858;7.232;2023-02-18T04:55:07;51816.22;;;-142.34;30.94
12951;BME280;6540;50.858;7.232;2023-02-18T04:57:32;51850.50;;;-142.34;32.76
12951;BME280;6540;50.858;7.232;2023-02-18T04:59:57;51826.31;;;-142.34;33.87
12951;BME280;6540;50.858;7.232;2023-02-18T05:02:23;51832.34;;;-142.34;32.90
12951;BME280;6540;50.858;7.232;2023-02-18T05:04:48;51852.53;;;-142.34;32.36
12951;BME280;6540;50.858;7.232;2023-02-18T05:07:13;51854.53;;;-142.34;34.96
12951;BME280;6540;50.858;7.232;2023-02-18T05:09:39;51874.72;;;-142.34;34.17
12951;BME280;6540;50.858;7.232;2023-02-18T05:12:05;51828.31;;;-142.34;34.18
12951;BME280;6540;50.858;7.232;2023-02-18T05:14:30;51874.72;;;-142.34;34.63
12951;BME280;6540;50.858;7.232;2023-02-18T05:16:55;51856.56;;;-142.34;33.73
12951;BME280;6540;50.858;7.232;2023-02-18T05:19:21;51852.53;;;-142.34;34.68
12951;BME280;6540;50.858;7.232;2023-02-18T05:21:47;51858.56;;;-142.34;33.51
12951;BME280;6540;50.858;7.232;2023-02-18T05:24:12;51872.69;;;-142.34;33.22
12951;BME280;6540;50.858;7.232;2023-02-18T05:26:38;51880.78;;;-142.34;33.00
12951;BME280;6540;50.858;7.232;2023-02-18T05:29:03;51850.50;;;-142.34;33.72
12951;BME280;6540;50.858;7.232;2023-02-18T05:31:28;51866.66;;;-142.34;34.25
12951;BME280;6540;50.858;7.232;2023-02-18T05:33:54;51886.81;;;-142.34;34.59
12951;BME280;6540;50.858;7.232;2023-02-18T05:36:19;51876.72;;;-142.34;33.69
12951;BME280;6540;50.858;7.232;2023-02-18T05:38:44;51878.75;;;-142.34;34.56
12951;BME280;6540;50.858;7.232;2023-02-18T05:41:10;51868.66;;;-142.34;32.98
12951;BME280;6540;50.858;7.232;2023-02-18T05:43:35;51846.47;;;-142.34;32.28
12951;BME280;6540;50.858;7.232;2023-02-18T05:46:21;51870.69;;;-142.34;33.86
12951;BME280;6540;50.858;7.232;2023-02-18T05:48:46;51898.94;;;-142.34;34.48
12951;BME280;6540;50.858;7.232;2023-02-18T05:51:12;51880.78;;;-142.34;34.41
12951;BME280;6540;50.858;7.232;2023-02-18T05:53:37;51874.72;;;-142.34;34.73
12951;BME280;6540;50.858;7.232;2023-02-18T05:56:03;51876.72;;;-142.34;35.48
12951;BME280;6540;50.858;7.232;2023-02-18T05:58:28;51866.66;;;-142.34;34.17
12951;BME280;6540;50.858;7.232;2023-02-18T06:00:54;51907.00;;;-142.34;35.57
12951;BME280;6540;50.858;7.232;2023-02-18T06:03:19;51909.00;;;-142.34;35.17
12951;BME280;6540;50.858;7.232;2023-02-18T06:05:48;51870.69;;;-142.34;33.68
12951;BME280;6540;50.858;7.232;2023-02-18T06:08:14;51884.81;;;-142.34;35.08
12951;BME280;6540;50.858;7.232;2023-02-18T06:10:40;51888.84;;;-142.34;34.75
12951;BME280;6540;50.858;7.232;2023-02-18T06:13:05;51872.69;;;-142.34;35.57
12951;BME280;6540;50.858;7.232;2023-02-18T06:15:30;51874.72;;;-142.34;35.81
12951;BME280;6540;50.858;7.232;2023-02-18T06:17:55;51896.91;;;-142.34;35.88
12951;BME280;6540;50.858;7.232;2023-02-18T06:20:21;51913.03;;;-142.34;35.14
12951;BME280;6540;50.858;7.232;2023-02-18T06:22:46;51888.84;;;-142.34;33.94
12951;BME280;6540;50.858;7.232;2023-02-18T06:25:12;51890.84;;;-142.34;35.18
12951;BME280;6540;50.858;7.232;2023-02-18T06:27:37;51917.06;;;-142.34;34.09
12951;BME280;6540;50.858;7.232;2023-02-18T06:30:03;51884.81;;;-142.34;35.62
12951;BME280;6540;50.858;7.232;2023-02-18T06:32:29;51898.94;;;-142.34;35.91
12951;BME280;6540;50.858;7.232;2023-02-18T06:34:54;51890.84;;;-142.34;34.64
12951;BME280;6540;50.858;7.232;2023-02-18T06:37:19;51886.81;;;-142.34;35.62
12951;BME280;6540;50.858;7.232;2023-02-18T06:39:45;51884.81;;;-142.34;34.23
12951;BME280;6540;50.858;7.232;2023-02-18T06:42:10;51882.78;;;-142.34;33.78
12951;BME280;6540;50.858;7.232;2023-02-18T06:44:36;51896.91;;;-142.34;33.53
12951;BME280;6540;50.858;7.232;2023-02-18T06:47:01;51876.72;;;-142.34;33.80
12951;BME280;6540;50.858;7.232;2023-02-18T06:49:26;51907.00;;;-142.34;34.40
12951;BME280;6540;50.858;7.232;2023-02-18T06:51:52;51886.81;;;-142.34;33.72
12951;BME280;6540;50.858;7.232;2023-02-18T06:54:17;51884.81;;;-142.34;32.76
12951;BME280;6540;50.858;7.232;2023-02-18T06:56:42;51888.84;;;-142.34;32.64
12951;BME280;6540;50.858;7.232;2023-02-18T06:59:08;51838.41;;;-142.34;32.23
12951;BME280;6540;50.858;7.232;2023-02-18T07:01:33;51866.66;;;-142.34;32.74
12951;BME280;6540;50.858;7.232;2023-02-18T07:03:58;51870.69;;;-142.34;33.22
12951;BME280;6540;50.858;7.232;2023-02-18T07:06:24;51862.63;;;-142.34;33.32
12951;BME280;6540;50.858;7.232;2023-02-18T07:08:49;51890.84;;;-142.34;33.22
12951;BME280;6540;50.858;7.232;2023-02-18T07:11:15;51925.16;;;-142.34;33.54
12951;BME280;6540;50.858;7.232;2023-02-18T07:13:40;51882.78;;;-142.34;34.24
12951;BME280;6540;50.858;7.232;2023-02-18T07:16:05;51925.16;;;-142.34;33.78
12951;BME280;6540;50.858;7.232;2023-02-18T07:18:31;51894.88;;;-142.34;34.58
12951;BME280;6540;50.858;7.232;2023-02-18T07:20:56;51915.06;;;-142.34;33.15
12951;BME280;6540;50.858;7.232;2023-02-18T07:23:22;51882.78;;;-142.34;32.75
12951;BME280;6540;50.858;7.232;2023-02-18T07:25:47;51850.50;;;-142.34;34.47
12951;BME280;6540;50.858;7.232;2023-02-18T07:28:12;51904.97;;;-142.34;34.57
12951;BME280;6540;50.858;7.232;2023-02-18T07:30:38;51874.72;;;-142.34;32.64
12951;BME280;6540;50.858;7.232;2023-02-18T07:33:03;51874.72;;;-142.34;34.03
12951;BME280;6540;50.858;7.232;2023-02-18T07:35:28;51894.88;;;-142.34;33.64
12951;BME280;6540;50.858;7.232;2023-02-18T07:37:54;51862.63;;;-142.34;34.37
12951;BME280;6540;50.858;7.232;2023-02-18T07:40:21;51890.84;;;-142.34;33.17
12951;BME280;6540;50.858;7.232;2023-02-18T07:42:48;51838.41;;;-142.34;33.52
12951;BME280;6540;50.858;7.232;2023-02-18T07:45:14;51858.56;;;-142.34;33.25
12951;BME280;6540;50.858;7.232;2023-02-18T07:47:39;51858.56;;;-142.34;33.17
12951;BME280;6540;50.858;7.232;2023-02-18T07:50:07;51874.72;;;-142.34;33.41
12951;BME280;6540;50.858;7.232;2023-02-18T07:52:33;51888.84;;;-142.34;32.61
12951;BME280;6540;50.858;7.232;2023-02-18T07:54:59;51898.94;;;-142.34;34.26
12951;BME280;6540;50.858;7.232;2023-02-18T07:57:24;51915.06;;;-142.34;34.01
12951;BME280;6540;50.858;7.232;2023-02-18T07:59:50;51880.78;;;-142.34;33.44
12951;BME280;6540;50.858;7.232;2023-02-18T08:02:18;51886.81;;;-142.34;33.76
12951;BME280;6540;50.858;7.232;2023-02-18T08:04:43;51878.75;;;-142.34;33.60
12951;BME280;6540;50.858;7.232;2023-02-18T08:07:13;51900.94;;;-142.34;31.75
12951;BME280;6540;50.858;7.232;2023-02-18T08:09:39;51878.75;;;-142.34;33.63
12951;BME280;6540;50.858;7.232;2023-02-18T08:12:04;51911.03;;;-142.34;33.78
12951;BME280;6540;50.858;7.232;2023-02-18T08:14:30;51927.16;;;-142.34;32.84
12951;BME280;6540;50.858;7.232;2023-02-18T08:16:55;51878.75;;;-142.34;35.09
12951;BME280;6540;50.858;7.232;2023-02-18T08:19:20;51868.66;;;-142.34;33.42
12951;BME280;6540;50.858;7.232;2023-02-18T08:21:46;51854.53;;;-142.34;35.07
12951;BME280;6540;50.858;7.232;2023-02-18T08:24:11;51902.97;;;-142.34;34.27
12951;BME280;6540;50.858;7.232;2023-02-18T08:26:37;51888.84;;;-142.34;34.94
12951;BME280;6540;50.858;7.232;2023-02-18T08:29:02;51898.94;;;-142.34;36.40
12951;BME280;6540;50.858;7.232;2023-02-18T08:31:29;51888.84;;;-142.34;34.74
12951;BME280;6540;50.858;7.232;2023-02-18T08:33:56;51907.00;;;-142.34;35.69
12951;BME280;6540;50.858;7.232;2023-02-18T08:36:22;51937.25;;;-142.34;35.21
12951;BME280;6540;50.858;7.232;2023-02-18T08:38:48;51898.94;;;-142.34;34.35
12951;BME280;6540;50.858;7.232;2023-02-18T08:41:13;51913.03;;;-142.34;34.83
12951;BME280;6540;50.858;7.232;2023-02-18T08:43:39;51907.00;;;-142.34;35.01
12951;BME280;6540;50.858;7.232;2023-02-18T08:46:05;51890.84;;;-142.34;34.78
12951;BME280;6540;50.858;7.232;2023-02-18T08:48:31;51919.09;;;-142.34;34.36
12951;BME280;6540;50.858;7.232;2023-02-18T08:50:56;51890.84;;;-142.34;34.67
12951;BME280;6540;50.858;7.232;2023-02-18T08:53:22;51927.16;;;-142.34;33.15
12951;BME280;6540;50.858;7.232;2023-02-18T08:55:47;51955.41;;;-142.34;34.46
12951;BME280;6540;50.858;7.232;2023-02-18T08:58:13;51945.31;;;-142.34;33.84
12951;BME280;6540;50.858;7.232;2023-02-18T09:00:39;51894.88;;;-142.34;33.77
12951;BME280;6540;50.858;7.232;2023-02-18T09:03:05;51878.75;;;-142.34;33.72
12951;BME280;6540;50.858;7.232;2023-02-18T09:05:32;51921.13;;;-142.34;33.95
12951;BME280;6540;50.858;7.232;2023-02-18T09:07:58;51876.72;;;-142.34;32.80
12951;BME280;6540;50.858;7.232;2023-02-18T09:10:26;51896.91;;;-142.34;33.80
12951;BME280;6540;50.858;7.232;2023-02-18T09:12:52;51913.03;;;-142.34;33.13
12951;BME280;6540;50.858;7.232;2023-02-18T09:15:17;51886.81;;;-142.34;33.22
12951;BME280;6540;50.858;7.232;2023-02-18T09:17:43;51933.22;;;-142.34;32.21
12951;BME280;6540;50.858;7.232;2023-02-18T09:20:09;51902.97;;;-142.34;32.66
12951;BME280;6540;50.858;7.232;2023-02-18T09:22:34;51890.84;;;-142.34;32.57
12951;BME280;6540;50.858;7.232;2023-02-18T09:25:00;51900.94;;;-142.34;32.04
12951;BME280;6540;50.858;7.232;2023-02-18T09:27:25;51862.63;;;-142.34;33.25
12951;BME280;6540;50.858;7.232;2023-02-18T09:29:50;51909.00;;;-142.34;33.93
12951;BME280;6540;50.858;7.232;2023-02-18T09:32:16;51917.06;;;-142.34;33.47
12951;BME280;6540;50.858;7.232;2023-02-18T09:34:43;51888.84;;;-142.34;31.49
12951;BME280;6540;50.858;7.232;2023-02-18T09:37:09;51878.75;;;-142.34;31.74
12951;BME280;6540;50.858;7.232;2023-02-18T09:39:35;51892.88;;;-142.34;31.48
12951;BME280;6540;50.858;7.232;2023-02-18T09:42:06;51917.06;;;-142.34;32.06
12951;BME280;6540;50.858;7.232;2023-02-18T09:44:54;51902.97;;;-142.34;31.84
12951;BME280;6540;50.858;7.232;2023-02-18T09:47:41;51896.91;;;-142.34;32.09
12951;BME280;6540;50.858;7.232;2023-02-18T09:50:14;51900.94;;;-142.34;32.61
12951;BME280;6540;50.858;7.232;2023-02-18T09:52:43;51902.97;;;-142.34;32.82
12951;BME280;6540;50.858;7.232;2023-02-18T09:55:26;51894.88;;;-142.34;32.16
12951;BME280;6540;50.858;7.232;2023-02-18T09:57:55;51902.97;;;-142.34;32.11
12951;BME280;6540;50.858;7.232;2023-02-18T10:02:58;51902.97;;;-142.34;30.11
12951;BME280;6540;50.858;7.232;2023-02-18T10:05:26;51874.72;;;-142.34;33.68
12951;BME280;6540;50.858;7.232;2023-02-18T10:07:58;51894.88;;;-142.34;33.58
12951;BME280;6540;50.858;7.232;2023-02-18T10:10:38;51923.13;;;-142.34;31.57
12951;BME280;6540;50.858;7.232;2023-02-18T10:13:09;51884.81;;;-142.34;30.47
12951;BME280;6540;50.858;7.232;2023-02-18T10:15:37;51896.91;;;-142.34;30.51
12951;BME280;6540;50.858;7.232;2023-02-18T10:18:04;51874.72;;;-142.34;30.49
12951;BME280;6540;50.858;7.232;2023-02-18T10:20:32;51886.81;;;-142.34;32.50
12951;BME280;6540;50.858;7.232;2023-02-18T10:23:00;51846.47;;;-142.34;31.25
12951;BME280;6540;50.858;7.232;2023-02-18T10:25:27;51872.69;;;-142.34;32.92
12951;BME280;6540;50.858;7.232;2023-02-18T10:27:53;51898.94;;;-142.34;31.86
12951;BME280;6540;50.858;7.232;2023-02-18T10:30:27;51902.97;;;-142.34;32.62
12951;BME280;6540;50.858;7.232;2023-02-18T10:33:00;51864.63;;;-142.34;31.83
12951;BME280;6540;50.858;7.232;2023-02-18T10:35:51;51882.78;;;-142.34;32.51
12951;BME280;6540;50.858;7.232;2023-02-18T10:38:33;51874.72;;;-142.34;32.18
12951;BME280;6540;50.858;7.232;2023-02-18T10:41:26;51886.81;;;-142.34;31.69
12951;BME280;6540;50.858;7.232;2023-02-18T10:49:18;51894.88;;;-142.34;32.96
12951;BME280;6540;50.858;7.232;2023-02-18T10:51:52;51896.91;;;-142.34;32.57
12951;BME280;6540;50.858;7.232;2023-02-18T10:54:23;51878.75;;;-142.34;34.00
12951;BME280;6540;50.858;7.232;2023-02-18T10:56:51;51894.88;;;-142.34;34.79
12951;BME280;6540;50.858;7.232;2023-02-18T10:59:31;51923.13;;;-142.34;33.31
12951;BME280;6540;50.858;7.232;2023-02-18T11:02:01;51858.56;;;-142.34;33.81
12951;BME280;6540;50.858;7.232;2023-02-18T11:04:38;51862.63;;;-142.34;33.61
12951;BME280;6540;50.858;7.232;2023-02-18T11:07:10;51856.56;;;-142.34;33.46
12951;BME280;6540;50.858;7.232;2023-02-18T11:09:45;51898.94;;;-142.34;32.64
12951;BME280;6540;50.858;7.232;2023-02-18T11:12:19;51862.63;;;-142.34;32.77
12951;BME280;6540;50.858;7.232;2023-02-18T11:14:48;51919.09;;;-142.34;34.49
12951;BME280;6540;50.858;7.232;2023-02-18T11:17:21;51896.91;;;-142.34;34.65
12951;BME280;6540;50.858;7.232;2023-02-18T11:19:56;51872.69;;;-142.34;35.03
12951;BME280;6540;50.858;7.232;2023-02-18T11:22:31;51919.09;;;-142.34;35.06
12951;BME280;6540;50.858;7.232;2023-02-18T11:24:59;51890.84;;;-142.34;35.49
12951;BME280;6540;50.858;7.232;2023-02-18T11:27:39;51919.09;;;-142.34;36.47
12951;BME280;6540;50.858;7.232;2023-02-18T11:30:26;51882.78;;;-142.34;35.22
12951;BME280;6540;50.858;7.232;2023-02-18T11:35:38;51927.16;;;-142.34;36.41
12951;BME280;6540;50.858;7.232;2023-02-18T11:38:17;51898.94;;;-142.34;34.20
12951;BME280;6540;50.858;7.232;2023-02-18T11:40:56;51898.94;;;-142.34;33.58
12951;BME280;6540;50.858;7.232;2023-02-18T11:43:28;51913.03;;;-142.34;32.99
12951;BME280;6540;50.858;7.232;2023-02-18T11:46:15;51923.13;;;-142.34;34.44
12951;BME280;6540;50.858;7.232;2023-02-18T11:48:40;51892.88;;;-142.34;34.11
12951;BME280;6540;50.858;7.232;2023-02-18T11:51:15;51880.78;;;-142.34;34.86
12951;BME280;6540;50.858;7.232;2023-02-18T11:54:00;51898.94;;;-142.34;33.89
12951;BME280;6540;50.858;7.232;2023-02-18T11:56:31;51915.06;;;-142.34;35.57
12951;BME280;6540;50.858;7.232;2023-02-18T11:58:58;51907.00;;;-142.34;35.20
12951;BME280;6540;50.858;7.232;2023-02-18T12:01:45;51900.94;;;-142.34;36.05
12951;BME280;6540;50.858;7.232;2023-02-18T12:04:27;51888.84;;;-142.34;35.64
12951;BME280;6540;50.858;7.232;2023-02-18T12:07:29;51892.88;;;-142.34;36.30
12951;BME280;6540;50.858;7.232;2023-02-18T12:10:03;51870.69;;;-142.34;35.34
12951;BME280;6540;50.858;7.232;2023-02-18T12:12:41;51898.94;;;-142.34;34.72
12951;BME280;6540;50.858;7.232;2023-02-18T12:15:13;51870.69;;;-142.34;34.18
12951;BME280;6540;50.858;7.232;2023-02-18T12:18:12;51894.88;;;-142.34;36.33
12951;BME280;6540;50.858;7.232;2023-02-18T12:25:59;51951.38;;;-142.34;35.89
12951;BME280;6540;50.858;7.232;2023-02-18T12:28:38;51900.94;;;-142.34;35.22
12951;BME280;6540;50.858;7.232;2023-02-18T12:31:33;51911.03;;;-142.34;36.10
12951;BME280;6540;50.858;7.232;2023-02-18T12:45:03;51917.06;;;-142.34;35.37
12951;BME280;6540;50.858;7.232;2023-02-18T12:50:48;51882.78;;;-142.34;34.98
12951;BME280;6540;50.858;7.232;2023-02-18T13:18:00;51866.66;;;-142.34;36.16
12951;BME280;6540;50.858;7.232;2023-02-18T13:20:58;51904.97;;;-142.34;36.87
12951;BME280;6540;50.858;7.232;2023-02-18T13:23:33;51911.03;;;-142.34;36.68
12951;BME280;6540;50.858;7.232;2023-02-18T13:26:01;51931.19;;;-142.34;35.92
12951;BME280;6540;50.858;7.232;2023-02-18T13:28:39;51884.81;;;-142.34;35.81
12951;BME280;6540;50.858;7.232;2023-02-18T13:31:31;51915.06;;;-142.34;35.87
12951;BME280;6540;50.858;7.232;2023-02-18T13:36:33;51898.94;;;-142.34;35.43
12951;BME280;6540;50.858;7.232;2023-02-18T13:39:09;51876.72;;;-142.34;34.43
12951;BME280;6540;50.858;7.232;2023-02-18T13:41:43;51915.06;;;-142.34;34.95
12951;BME280;6540;50.858;7.232;2023-02-18T13:46:56;51874.72;;;-142.34;34.19
12951;BME280;6540;50.858;7.232;2023-02-18T13:49:24;51886.81;;;-142.34;33.91
12951;BME280;6540;50.858;7.232;2023-02-18T13:51:55;51913.03;;;-142.34;35.91
12951;BME280;6540;50.858;7.232;2023-02-18T13:54:29;51925.16;;;-142.34;36.57
12951;BME280;6540;50.858;7.232;2023-02-18T13:57:06;51894.88;;;-142.34;36.97
12951;BME280;6540;50.858;7.232;2023-02-18T13:59:46;51919.09;;;-142.34;36.06
12951;BME280;6540;50.858;7.232;2023-02-18T14:09:52;51907.00;;;-142.34;36.78
12951;BME280;6540;50.858;7.232;2023-02-18T14:12:40;51886.81;;;-142.34;37.04
12951;BME280;6540;50.858;7.232;2023-02-18T14:26:35;51915.06;;;-142.34;36.68
12951;BME280;6540;50.858;7.232;2023-02-18T14:29:09;51923.13;;;-142.34;35.75
12951;BME280;6540;50.858;7.232;2023-02-18T14:36:41;51909.00;;;-142.34;35.23
12951;BME280;6540;50.858;7.232;2023-02-18T14:47:28;51925.16;;;-142.34;34.46
12951;BME280;6540;50.858;7.232;2023-02-18T14:50:02;51915.06;;;-142.34;34.50
12951;BME280;6540;50.858;7.232;2023-02-18T14:54:57;51919.09;;;-142.34;36.22
12951;BME280;6540;50.858;7.232;2023-02-18T14:57:38;51898.94;;;-142.34;34.33
12951;BME280;6540;50.858;7.232;2023-02-18T15:00:05;51927.16;;;-142.34;36.52
12951;BME280;6540;50.858;7.232;2023-02-18T15:02:37;51915.06;;;-142.34;34.47
12951;BME280;6540;50.858;7.232;2023-02-18T15:05:22;51915.06;;;-142.34;33.32
12951;BME280;6540;50.858;7.232;2023-02-18T15:07:59;51927.16;;;-142.34;35.25
12951;BME280;6540;50.858;7.232;2023-02-18T15:10:42;51902.97;;;-142.34;34.07
12951;BME280;6540;50.858;7.232;2023-02-18T15:13:14;51909.00;;;-142.34;35.52
12951;BME280;6540;50.858;7.232;2023-02-18T15:15:42;51866.66;;;-142.34;35.62
12951;BME280;6540;50.858;7.232;2023-02-18T15:18:28;51900.94;;;-142.34;35.75
12951;BME280;6540;50.858;7.232;2023-02-18T15:20:54;51898.94;;;-142.34;34.84
12951;BME280;6540;50.858;7.232;2023-02-18T15:23:20;51876.72;;;-142.34;34.99
12951;BME280;6540;50.858;7.232;2023-02-18T15:25:49;51902.97;;;-142.34;35.53
12951;BME280;6540;50.858;7.232;2023-02-18T15:28:26;51915.06;;;-142.34;35.36